Time;durP1;ratioP1;P1;durP2;ratioP2;P2;SDS_P1;SDS_P2;PMS_P1;PMS_P2;Temp;Humidity;BMP_temperature;BMP_pressure;BME280_temperature;BME280_humidity;BME280_pressure;Samples;Min_cycle;Max_cycle;Signal;HPM_P1;HPM_P2
2022/07/05 00:00:02;;;;;;;0.20;0.20;;;24.10;43.70;;;;;;6277770;28;20195;-43
2022/07/05 00:03:13;;;;;;;0.17;0.10;;;24.20;43.70;;;;;;6275451;28;20044;-46
2022/07/05 00:06:16;;;;;;;0.28;0.17;;;24.20;43.80;;;;;;6277053;28;20052;-48
2022/07/05 00:09:23;;;;;;;0.30;0.17;;;24.10;43.80;;;;;;6265430;28;20035;-48
2022/07/05 00:12:27;;;;;;;0.17;0.17;;;24.20;43.80;;;;;;6275614;28;20166;-46
2022/07/05 00:15:29;;;;;;;0.10;0.10;;;24.10;43.80;;;;;;6268706;28;20059;-43
2022/07/05 00:18:38;;;;;;;0.13;0.10;;;24.10;44.50;;;;;;6283573;28;20086;-46
2022/07/05 00:21:40;;;;;;;0.10;0.10;;;24.10;43.90;;;;;;6280529;28;20051;-45
2022/07/05 00:24:42;;;;;;;0.20;0.20;;;24.10;44.20;;;;;;6283243;28;20043;-43
2022/07/05 00:27:44;;;;;;;0.20;0.20;;;24.10;44.00;;;;;;6270958;28;20044;-46
2022/07/05 00:30:54;;;;;;;0.22;0.20;;;24.00;44.00;;;;;;6262646;28;20051;-46
2022/07/05 00:33:55;;;;;;;0.10;0.10;;;24.10;44.10;;;;;;6275472;28;20990;-44
2022/07/05 00:36:57;;;;;;;0.22;0.20;;;24.10;44.10;;;;;;6276726;28;20983;-46
2022/07/05 00:40:09;;;;;;;0.20;0.20;;;24.20;44.30;;;;;;6273930;28;20051;-44
2022/07/05 00:43:10;;;;;;;;;;;24.00;44.20;;;;;;6246631;28;20035;-44
2022/07/05 00:46:12;;;;;;;0.10;0.10;;;24.20;44.30;;;;;;6279453;28;19963;-45
2022/07/05 00:49:21;;;;;;;0.30;0.20;;;24.00;44.40;;;;;;6282015;28;20051;-44
2022/07/05 00:52:23;;;;;;;0.10;0.10;;;24.00;44.40;;;;;;6295182;28;20036;-46
2022/07/05 00:55:25;;;;;;;0.15;0.10;;;23.90;44.40;;;;;;6268759;28;20044;-45
2022/07/05 00:58:27;;;;;;;0.17;0.17;;;23.90;44.50;;;;;;6290508;28;20076;-45
2022/07/05 01:01:37;;;;;;;0.20;0.20;;;24.00;44.70;;;;;;6295202;28;20047;-44
2022/07/05 01:04:49;;;;;;;0.10;0.10;;;23.90;44.70;;;;;;6289548;28;20077;-44
2022/07/05 01:07:51;;;;;;;0.17;0.10;;;23.90;44.90;;;;;;6273287;28;21051;-46
2022/07/05 01:10:55;;;;;;;0.10;0.10;;;23.80;44.90;;;;;;6290673;28;20106;-45
2022/07/05 01:13:59;;;;;;;0.20;0.20;;;23.90;45.00;;;;;;6269603;28;20046;-43
2022/07/05 01:17:00;;;;;;;0.30;0.10;;;23.80;45.10;;;;;;6291723;28;20047;-45
2022/07/05 01:20:10;;;;;;;0.17;0.10;;;23.80;45.20;;;;;;6287061;28;20050;-46
2022/07/05 01:23:13;;;;;;;0.30;0.13;;;23.90;45.50;;;;;;6292610;28;20051;-43
2022/07/05 01:26:14;;;;;;;0.20;0.10;;;23.80;45.50;;;;;;6290629;28;20047;-49
2022/07/05 01:29:17;;;;;;;0.43;0.20;;;23.80;45.60;;;;;;6283482;28;20718;-43
2022/07/05 01:32:26;;;;;;;0.20;0.15;;;23.80;45.60;;;;;;6247103;28;20090;-44
2022/07/05 01:35:36;;;;;;;0.20;0.20;;;23.70;45.60;;;;;;6281258;28;20999;-48
2022/07/05 01:38:39;;;;;;;0.20;0.15;;;23.70;45.70;;;;;;6281647;28;20048;-47
2022/07/05 01:41:40;;;;;;;0.30;0.10;;;23.70;45.70;;;;;;6280053;28;20166;-46
2022/07/05 01:44:42;;;;;;;0.38;0.20;;;23.70;45.80;;;;;;6278468;28;20036;-45
2022/07/05 01:47:45;;;;;;;0.35;0.20;;;23.70;45.90;;;;;;6281032;28;21036;-46
2022/07/05 01:51:05;;;;;;;0.28;0.10;;;23.70;45.90;;;;;;6292043;28;20031;-44
2022/07/05 01:54:08;;;;;;;0.35;0.10;;;23.80;46.10;;;;;;6275634;28;20051;-45
2022/07/05 01:57:10;;;;;;;0.73;0.20;;;23.60;45.90;;;;;;6278472;28;20052;-48
2022/07/05 02:00:12;;;;;;;0.10;0.10;;;23.80;46.10;;;;;;6263948;28;20043;-43
2022/07/05 02:03:23;;;;;;;0.32;0.20;;;23.70;46.10;;;;;;6282204;28;20044;-44
2022/07/05 02:06:53;;;;;;;0.20;0.15;;;23.80;46.20;;;;;;6261752;28;20184;-46
2022/07/05 02:09:55;;;;;;;0.20;0.20;;;23.70;46.20;;;;;;6279157;28;20047;-46
2022/07/05 02:12:57;;;;;;;0.30;0.20;;;23.60;46.10;;;;;;6278650;28;20043;-45
2022/07/05 02:15:59;;;;;;;0.55;0.20;;;23.80;46.30;;;;;;6284326;28;20051;-46
2022/07/05 02:19:01;;;;;;;0.10;0.10;;;23.70;46.30;;;;;;6281688;28;20821;-47
2022/07/05 02:22:16;;;;;;;0.22;0.10;;;23.80;46.40;;;;;;6249929;28;20035;-45
2022/07/05 02:25:18;;;;;;;0.52;0.20;;;23.70;46.50;;;;;;6260237;28;20380;-45
2022/07/05 02:28:20;;;;;;;0.20;0.20;;;23.70;46.50;;;;;;6269618;28;20043;-46
2022/07/05 02:31:25;;;;;;;0.20;0.20;;;23.80;46.60;;;;;;6260987;28;20326;-45
2022/07/05 02:37:46;;;;;;;0.30;0.30;;;23.70;46.70;;;;;;6259782;28;20176;-46
2022/07/05 02:40:48;;;;;;;0.20;0.20;;;23.80;46.80;;;;;;6260254;28;20067;-46
2022/07/05 02:43:51;;;;;;;0.63;0.20;;;23.90;47.50;;;;;;6273103;28;20044;-46
2022/07/05 02:46:56;;;;;;;0.28;0.20;;;23.80;46.90;;;;;;6278749;28;20367;-46
2022/07/05 02:50:04;;;;;;;0.10;0.10;;;23.80;46.90;;;;;;6277448;28;20109;-44
2022/07/05 02:53:17;;;;;;;0.30;0.20;;;23.80;47.00;;;;;;6256058;28;20363;-44
2022/07/05 02:56:21;;;;;;;0.10;0.10;;;23.80;47.10;;;;;;6272736;28;21007;-49
2022/07/05 02:59:23;;;;;;;0.30;0.20;;;23.90;47.20;;;;;;6264222;28;20028;-47
2022/07/05 03:02:25;;;;;;;0.20;0.10;;;23.80;47.20;;;;;;6265834;28;20182;-48
2022/07/05 03:05:36;;;;;;;0.35;0.10;;;23.80;47.30;;;;;;6265261;28;20637;-48
2022/07/05 03:08:48;;;;;;;0.70;0.10;;;23.80;47.40;;;;;;6269292;28;20457;-48
2022/07/05 03:11:51;;;;;;;0.75;0.20;;;23.80;47.40;;;;;;6266335;28;20143;-46
2022/07/05 03:14:52;;;;;;;0.10;0.10;;;23.80;47.50;;;;;;6263968;28;20385;-45
2022/07/05 03:17:57;;;;;;;0.20;0.20;;;23.90;47.50;;;;;;6264205;28;20075;-45
2022/07/05 03:21:00;;;;;;;0.57;0.20;;;23.80;47.60;;;;;;6265895;28;20044;-46
2022/07/05 03:24:11;;;;;;;0.30;0.10;;;23.80;48.40;;;;;;6265920;28;20678;-45
2022/07/05 03:27:15;;;;;;;0.10;0.10;;;23.70;47.60;;;;;;6264528;28;20047;-47
2022/07/05 03:30:23;;;;;;;0.20;0.20;;;23.80;47.80;;;;;;6261884;28;20483;-44
2022/07/05 03:33:26;;;;;;;0.28;0.20;;;23.80;47.80;;;;;;6265559;28;20918;-49
2022/07/05 03:36:40;;;;;;;0.13;0.13;;;23.70;47.90;;;;;;6263088;28;20214;-47
2022/07/05 03:39:55;;;;;;;0.10;0.08;;;23.70;47.90;;;;;;6264661;28;20035;-46
2022/07/05 03:42:57;;;;;;;0.10;0.10;;;23.70;48.00;;;;;;6278149;28;20048;-46
2022/07/05 03:46:03;;;;;;;0.30;0.20;;;23.70;48.60;;;;;;6252599;28;20564;-46
2022/07/05 03:49:06;;;;;;;0.43;0.10;;;23.80;48.20;;;;;;6276663;28;20051;-43
2022/07/05 03:52:09;;;;;;;0.20;0.20;;;23.80;48.30;;;;;;6276224;28;20709;-48
2022/07/05 03:55:16;;;;;;;0.28;0.20;;;23.70;48.30;;;;;;6268416;28;20040;-43
2022/07/05 03:58:19;;;;;;;0.20;0.20;;;23.60;48.30;;;;;;6264025;28;20247;-48
2022/07/05 04:01:21;;;;;;;0.85;0.30;;;23.70;48.40;;;;;;6267359;28;20113;-44
2022/07/05 04:04:23;;;;;;;0.40;0.15;;;23.70;48.50;;;;;;6265338;28;20059;-47
2022/07/05 04:07:33;;;;;;;0.10;0.10;;;23.70;48.50;;;;;;6270526;28;20162;-48
2022/07/05 04:10:43;;;;;;;0.20;0.20;;;23.80;48.60;;;;;;6273963;28;20295;-45
2022/07/05 04:13:48;;;;;;;0.20;0.20;;;23.70;48.60;;;;;;6266203;28;20499;-47
2022/07/05 04:16:50;;;;;;;0.22;0.13;;;23.60;48.60;;;;;;6267253;28;20869;-47
2022/07/05 04:19:52;;;;;;;0.15;0.10;;;23.70;48.70;;;;;;6261161;28;20481;-44
2022/07/05 04:22:55;;;;;;;0.20;0.10;;;23.70;48.70;;;;;;6263435;28;20035;-47
2022/07/05 04:26:05;;;;;;;;;;;23.60;48.80;;;;;;6238987;28;20216;-46
2022/07/05 04:29:13;;;;;;;0.20;0.20;;;23.70;48.90;;;;;;6259128;28;20249;-45
2022/07/05 04:32:14;;;;;;;0.17;0.13;;;23.70;48.70;;;;;;6255209;28;20044;-45
2022/07/05 04:35:17;;;;;;;0.38;0.10;;;23.60;48.80;;;;;;6258478;28;20254;-45
2022/07/05 04:38:29;;;;;;;0.85;0.20;;;23.60;48.70;;;;;;6262447;28;20795;-47
2022/07/05 04:41:41;;;;;;;0.10;0.10;;;23.60;48.70;;;;;;6265017;28;20373;-47
2022/07/05 04:44:46;;;;;;;0.40;0.20;;;23.70;48.70;;;;;;6264583;28;20520;-48
2022/07/05 04:47:49;;;;;;;0.65;0.20;;;23.60;48.60;;;;;;6257029;28;20236;-43
2022/07/05 04:50:51;;;;;;;0.50;0.30;;;23.70;48.60;;;;;;6261403;28;20435;-46
2022/07/05 04:53:53;;;;;;;0.30;0.20;;;23.70;48.60;;;;;;6254803;28;20204;-44
2022/07/05 04:57:03;;;;;;;0.30;0.20;;;23.70;48.60;;;;;;6256167;28;20624;-47
2022/07/05 05:00:06;;;;;;;0.15;0.10;;;23.70;48.60;;;;;;6252146;28;20293;-48
2022/07/05 05:03:08;;;;;;;0.20;0.20;;;23.70;48.50;;;;;;6251684;28;20071;-46
2022/07/05 05:06:10;;;;;;;0.40;0.20;;;23.70;48.50;;;;;;6262010;28;20659;-47
2022/07/05 05:12:25;;;;;;;0.68;0.20;;;23.70;48.40;;;;;;6275815;28;20055;-48
2022/07/05 05:15:28;;;;;;;0.20;0.20;;;23.60;48.40;;;;;;6278258;28;20075;-45
2022/07/05 05:18:29;;;;;;;0.30;0.22;;;23.70;48.40;;;;;;6271772;28;20071;-47
2022/07/05 05:21:31;;;;;;;0.32;0.20;;;23.70;48.50;;;;;;6272582;28;20048;-45
2022/07/05 05:24:34;;;;;;;0.20;0.10;;;23.60;48.40;;;;;;6272495;28;21004;-49
2022/07/05 05:27:44;;;;;;;0.20;0.10;;;23.50;48.40;;;;;;6270358;28;20829;-44
2022/07/05 05:30:50;;;;;;;0.10;0.10;;;23.50;48.40;;;;;;6280736;28;20039;-46
2022/07/05 05:33:51;;;;;;;0.35;0.20;;;23.70;48.50;;;;;;6276898;28;20044;-44
2022/07/05 05:36:53;;;;;;;0.20;0.20;;;23.70;48.50;;;;;;6265587;28;20910;-46
2022/07/05 05:40:03;;;;;;;0.28;0.20;;;23.60;48.50;;;;;;6266394;28;20151;-43
2022/07/05 05:43:13;;;;;;;0.20;0.20;;;23.60;48.50;;;;;;6268714;28;20097;-46
2022/07/05 05:46:15;;;;;;;0.40;0.25;;;23.70;48.60;;;;;;6262124;28;20048;-44
2022/07/05 05:49:16;;;;;;;0.30;0.20;;;23.60;48.60;;;;;;6264989;28;21192;-44
2022/07/05 05:52:18;;;;;;;0.30;0.20;;;23.70;48.70;;;;;;6264513;28;20149;-44
2022/07/05 05:55:21;;;;;;;0.28;0.17;;;23.70;48.70;;;;;;6266353;28;20118;-43
2022/07/05 05:58:29;;;;;;;0.40;0.30;;;23.70;48.80;;;;;;6261165;28;21249;-43
2022/07/05 06:01:31;;;;;;;0.38;0.17;;;23.70;48.80;;;;;;6258383;28;20143;-44
2022/07/05 06:04:33;;;;;;;0.50;0.28;;;23.80;48.90;;;;;;6254839;28;20040;-45
2022/07/05 06:07:51;;;;;;;0.38;0.20;;;23.70;48.90;;;;;;6251933;28;20106;-43
2022/07/05 06:11:03;;;;;;;0.70;0.20;;;23.70;49.00;;;;;;6234982;28;21775;-44
2022/07/05 06:14:13;;;;;;;0.13;0.10;;;23.70;49.00;;;;;;6241757;28;20083;-43
2022/07/05 06:17:15;;;;;;;0.40;0.20;;;23.50;49.00;;;;;;6240655;28;21246;-43
2022/07/05 06:20:18;;;;;;;0.43;0.30;;;23.70;49.10;;;;;;6243380;28;20676;-46
2022/07/05 06:23:20;;;;;;;1.13;0.40;;;23.70;49.20;;;;;;6205032;28;20520;-43
2022/07/05 06:26:28;;;;;;;0.93;0.30;;;23.70;49.30;;;;;;6223873;28;20074;-46
2022/07/05 06:29:37;;;;;;;0.63;0.35;;;23.80;49.40;;;;;;6220229;28;20081;-46
2022/07/05 06:32:39;;;;;;;2.90;0.40;;;23.70;49.40;;;;;;6214061;28;20150;-46
2022/07/05 06:35:41;;;;;;;2.92;0.30;;;23.70;49.60;;;;;;6219029;28;20036;-43
2022/07/05 06:38:43;;;;;;;1.38;0.20;;;23.70;49.70;;;;;;6215606;28;21058;-45
2022/07/05 06:45:00;;;;;;;0.77;0.20;;;23.60;49.80;;;;;;6198907;28;20080;-43
2022/07/05 06:48:04;;;;;;;1.15;0.45;;;23.70;50.60;;;;;;6186525;28;20753;-42
2022/07/05 06:51:06;;;;;;;0.52;0.20;;;23.60;49.90;;;;;;6180121;28;21447;-42
2022/07/05 06:54:08;;;;;;;1.02;0.40;;;23.60;50.00;;;;;;6166613;28;20048;-44
2022/07/05 06:57:30;;;;;;;3.88;0.40;;;23.60;49.90;;;;;;6158217;28;20028;-47
2022/07/05 07:00:39;;;;;;;1.10;0.50;;;23.60;49.90;;;;;;6113034;28;20125;-43
2022/07/05 07:04:01;;;;;;;0.52;0.30;;;23.60;49.90;;;;;;6115630;28;20051;-45
2022/07/05 07:10:38;;;;;;;1.02;0.40;;;23.60;50.00;;;;;;6143025;27;21821;-42
2022/07/05 07:13:45;;;;;;;1.63;0.40;;;23.50;49.80;;;;;;6129704;28;20047;-44
2022/07/05 07:16:54;;;;;;;2.03;0.40;;;23.70;49.80;;;;;;6081013;28;23301;-42
2022/07/05 07:19:56;;;;;;;1.38;0.35;;;23.60;49.70;;;;;;6104230;28;20040;-43
2022/07/05 07:22:58;;;;;;;0.50;0.30;;;23.70;49.70;;;;;;6077933;28;20046;-43
2022/07/05 07:26:00;;;;;;;1.48;0.70;;;23.70;49.60;;;;;;6098703;28;20052;-47
2022/07/05 07:29:01;;;;;;;1.80;0.25;;;23.70;49.40;;;;;;6061597;28;20039;-42
2022/07/05 07:32:11;;;;;;;0.93;0.30;;;23.70;49.30;;;;;;6067221;28;22466;-44
2022/07/05 07:35:13;;;;;;;1.90;0.60;;;23.70;49.20;;;;;;6080245;28;20044;-46
2022/07/05 07:38:15;;;;;;;1.23;0.52;;;23.80;49.10;;;;;;6060560;28;20162;-43
2022/07/05 07:41:17;;;;;;;0.70;0.20;;;23.80;49.00;;;;;;6063414;28;20108;-46
2022/07/05 07:44:28;;;;;;;0.70;0.60;;;23.70;48.90;;;;;;6045684;28;20044;-42
2022/07/05 07:47:37;;;;;;;0.73;0.22;;;23.90;48.70;;;;;;6062301;28;20177;-43
2022/07/05 07:50:39;;;;;;;0.52;0.20;;;24.00;48.80;;;;;;6059881;28;20262;-43
2022/07/05 07:53:41;;;;;;;0.45;0.20;;;24.00;48.70;;;;;;6076736;28;20050;-43
2022/07/05 07:56:43;;;;;;;0.93;0.13;;;23.90;48.30;;;;;;6082717;28;20265;-46
2022/07/05 07:59:45;;;;;;;1.42;0.20;;;24.00;48.30;;;;;;6066692;28;20147;-44
2022/07/05 08:02:54;;;;;;;0.40;0.10;;;24.00;48.10;;;;;;6005578;28;20081;-45
2022/07/05 08:05:57;;;;;;;0.63;0.20;;;23.90;47.90;;;;;;6039082;27;20095;-43
2022/07/05 08:08:59;;;;;;;1.30;0.32;;;24.10;47.90;;;;;;6035501;28;20051;-46
2022/07/05 08:12:01;;;;;;;2.22;0.15;;;24.20;47.90;;;;;;6059298;28;20198;-44
2022/07/05 08:15:11;;;;;;;0.60;0.20;;;24.10;47.80;;;;;;6080050;28;20070;-45
2022/07/05 08:21:32;;;;;;;1.00;0.20;;;24.30;47.70;;;;;;6090587;27;20054;-44
2022/07/05 08:24:40;;;;;;;1.20;0.15;;;24.30;47.70;;;;;;6074358;28;20357;-43
2022/07/05 08:27:41;;;;;;;0.43;0.10;;;24.30;47.50;;;;;;6105841;28;20047;-44
2022/07/05 08:30:43;;;;;;;1.60;0.30;;;24.20;47.40;;;;;;6072412;28;20048;-41
2022/07/05 08:33:51;;;;;;;1.17;0.10;;;24.30;47.30;;;;;;6073291;28;20043;-43
2022/07/05 08:37:01;;;;;;;0.35;0.15;;;24.30;47.40;;;;;;6070340;28;20162;-42
2022/07/05 08:40:06;;;;;;;0.75;0.10;;;24.30;47.10;;;;;;6097356;28;23281;-43
2022/07/05 08:43:10;;;;;;;0.43;0.20;;;24.40;47.00;;;;;;6106486;28;20049;-43
2022/07/05 08:46:19;;;;;;;0.45;0.10;;;24.40;46.90;;;;;;6109861;28;20481;-43
2022/07/05 08:49:23;;;;;;;1.05;0.20;;;24.30;46.70;;;;;;6075275;28;20177;-43
2022/07/05 08:52:27;;;;;;;0.25;0.20;;;24.40;47.30;;;;;;6092514;28;20141;-42
2022/07/05 08:55:34;;;;;;;0.20;0.10;;;24.60;46.70;;;;;;6094931;28;20064;-42
2022/07/05 08:58:37;;;;;;;0.45;0.20;;;24.40;46.50;;;;;;6098571;28;21550;-43
2022/07/05 09:01:39;;;;;;;0.40;0.10;;;24.50;46.40;;;;;;6097996;28;20044;-42
2022/07/05 09:04:50;;;;;;;0.13;0.10;;;24.50;46.30;;;;;;6100642;28;24436;-47
2022/07/05 09:07:58;;;;;;;2.58;0.10;;;24.50;46.20;;;;;;6106728;28;22001;-45
2022/07/05 09:11:02;;;;;;;0.05;0.05;;;24.50;46.10;;;;;;6064028;28;29624;-44
2022/07/05 09:14:05;;;;;;;0.50;0.20;;;24.60;46.10;;;;;;6111907;28;20055;-44
2022/07/05 09:17:34;;;;;;;0.40;0.10;;;24.60;46.00;;;;;;6072030;28;21584;-45
2022/07/05 09:20:35;;;;;;;0.20;0.17;;;24.50;45.90;;;;;;6106993;28;20869;-45
2022/07/05 09:23:38;;;;;;;0.10;0.10;;;23.90;45.50;;;;;;6095645;28;20047;-48
2022/07/05 09:26:49;;;;;;;0.10;0.10;;;24.60;45.70;;;;;;6091609;28;26171;-47
2022/07/05 09:29:55;;;;;;;0.20;0.10;;;24.60;45.70;;;;;;6076658;28;21458;-47
2022/07/05 09:33:07;;;;;;;0.10;0.10;;;24.70;45.60;;;;;;6074499;28;20074;-47
2022/07/05 09:36:16;;;;;;;0.20;0.10;;;24.70;45.60;;;;;;6075645;28;20242;-48
2022/07/05 09:39:18;;;;;;;0.13;0.10;;;24.40;45.20;;;;;;6070410;28;20090;-46
2022/07/05 09:42:23;;;;;;;0.85;0.20;;;24.70;45.30;;;;;;6097135;28;20087;-45
2022/07/05 09:45:25;;;;;;;0.47;0.10;;;24.70;45.10;;;;;;6069688;28;20044;-47
2022/07/05 09:48:36;;;;;;;0.20;0.20;;;24.80;45.00;;;;;;6080880;28;20055;-47
2022/07/05 09:51:50;;;;;;;0.00;0.00;;;24.80;44.90;;;;;;6107557;28;21414;-45
2022/07/05 09:55:07;;;;;;;0.00;0.00;;;24.90;45.00;;;;;;6114101;28;20051;-44
2022/07/05 09:58:26;;;;;;;1.65;0.10;;;24.90;44.60;;;;;;6121947;28;20040;-45
2022/07/05 10:01:29;;;;;;;2.00;0.17;;;24.90;44.50;;;;;;6085798;28;20046;-45
2022/07/05 10:04:31;;;;;;;0.10;0.10;;;24.90;44.50;;;;;;6120776;28;20044;-50
2022/07/05 10:07:44;;;;;;;0.30;0.10;;;24.80;44.70;;;;;;6133441;28;20146;-44
2022/07/05 10:10:49;;;;;;;0.20;0.10;;;24.90;45.00;;;;;;6131417;28;20178;-43
2022/07/05 10:13:52;;;;;;;0.40;0.10;;;24.80;44.20;;;;;;6129487;28;20040;-45
2022/07/05 10:17:05;;;;;;;0.10;0.10;;;24.90;44.20;;;;;;6143410;27;22627;-43
2022/07/05 10:20:20;;;;;;;0.22;0.20;;;24.90;44.00;;;;;;6183492;27;20036;-44
2022/07/05 10:23:23;;;;;;;0.13;0.08;;;24.90;43.90;;;;;;6207576;28;20040;-42
2022/07/05 10:26:25;;;;;;;0.20;0.10;;;24.90;43.80;;;;;;6206119;28;20151;-46
2022/07/05 10:29:34;;;;;;;0.10;0.10;;;25.10;43.90;;;;;;6205862;27;22006;-43
2022/07/05 10:32:38;;;;;;;0.20;0.10;;;25.00;43.50;;;;;;6214929;28;20137;-43
2022/07/05 10:35:42;;;;;;;0.10;0.10;;;24.50;43.10;;;;;;6200763;28;24297;-42
2022/07/05 10:38:52;;;;;;;0.15;0.10;;;24.80;43.10;;;;;;6207909;28;20044;-42
2022/07/05 10:41:55;;;;;;;0.40;0.20;;;24.80;43.10;;;;;;6223379;27;20874;-43
2022/07/05 10:44:57;;;;;;;0.30;0.20;;;25.00;43.10;;;;;;6234398;28;20036;-44
2022/07/05 10:48:13;;;;;;;0.17;0.13;;;25.10;43.10;;;;;;6211527;28;20093;-43
2022/07/05 10:51:22;;;;;;;0.20;0.20;;;25.00;42.80;;;;;;6223274;28;20048;-46
2022/07/05 10:54:23;;;;;;;0.30;0.10;;;24.90;42.80;;;;;;6220375;28;20044;-43
2022/07/05 10:57:26;;;;;;;0.10;0.10;;;24.90;42.60;;;;;;6229759;28;20130;-45
2022/07/05 11:00:36;;;;;;;0.20;0.10;;;24.90;42.50;;;;;;6231816;28;20040;-46
2022/07/05 11:03:40;;;;;;;0.10;0.10;;;24.90;42.50;;;;;;6218784;28;21163;-42
2022/07/05 11:06:43;;;;;;;0.10;0.10;;;24.90;42.50;;;;;;6218808;28;20052;-45
2022/07/05 11:10:01;;;;;;;0.10;0.10;;;25.00;42.60;;;;;;6236281;28;20187;-45
2022/07/05 11:13:36;;;;;;;0.10;0.10;;;24.90;42.50;;;;;;6215039;28;20056;-44
2022/07/05 11:16:37;;;;;;;0.20;0.20;;;24.90;42.50;;;;;;6220187;28;20982;-42
2022/07/05 11:20:09;;;;;;;0.20;0.10;;;24.90;42.50;;;;;;6240062;28;20047;-43
2022/07/05 11:23:20;;;;;;;0.20;0.10;;;24.70;42.40;;;;;;6216062;28;20042;-44
2022/07/05 11:26:22;;;;;;;0.28;0.20;;;24.80;42.60;;;;;;6222016;28;20052;-44
2022/07/05 11:29:41;;;;;;;0.32;0.20;;;24.80;42.90;;;;;;6224312;28;21684;-44
2022/07/05 11:32:42;;;;;;;0.10;0.10;;;24.70;42.70;;;;;;6194920;28;21010;-44
2022/07/05 11:35:44;;;;;;;0.20;0.15;;;24.80;42.80;;;;;;6225535;28;20151;-45
2022/07/05 11:39:10;;;;;;;0.10;0.10;;;24.90;42.70;;;;;;6206732;27;20099;-44
2022/07/05 11:42:28;;;;;;;0.55;0.10;;;24.70;42.60;;;;;;6202069;28;20141;-44
2022/07/05 11:45:31;;;;;;;0.20;0.10;;;24.60;42.70;;;;;;6218487;28;20052;-43
2022/07/05 11:48:33;;;;;;;0.65;0.30;;;24.70;42.60;;;;;;6220416;28;20047;-44
2022/07/05 11:51:34;;;;;;;0.20;0.10;;;24.70;42.50;;;;;;6200681;28;20055;-43
2022/07/05 11:54:44;;;;;;;0.15;0.10;;;24.70;42.50;;;;;;6182820;28;20050;-44
2022/07/05 11:57:49;;;;;;;0.20;0.20;;;24.70;42.40;;;;;;6187857;27;20060;-46
2022/07/05 12:00:55;;;;;;;0.20;0.20;;;24.60;42.30;;;;;;6172231;28;20385;-44
2022/07/05 12:03:57;;;;;;;0.28;0.10;;;24.70;42.40;;;;;;6179797;28;20082;-45
2022/07/05 12:06:59;;;;;;;0.38;0.20;;;24.70;42.40;;;;;;6145711;27;20051;-46
2022/07/05 12:13:54;;;;;;;0.17;0.13;;;24.70;42.40;;;;;;6113095;28;20078;-43
2022/07/05 12:17:12;;;;;;;0.20;0.10;;;24.70;42.40;;;;;;6148458;28;20083;-46
2022/07/05 12:20:20;;;;;;;0.10;0.10;;;24.70;42.30;;;;;;6147818;28;21137;-46
2022/07/05 12:23:27;;;;;;;0.10;0.10;;;24.70;42.40;;;;;;6121857;28;20047;-43
2022/07/05 12:26:36;;;;;;;0.20;0.10;;;24.70;42.40;;;;;;6106143;28;20055;-43
2022/07/05 12:29:37;;;;;;;0.30;0.20;;;24.70;42.60;;;;;;6120568;28;20176;-44
2022/07/05 12:32:56;;;;;;;0.10;0.10;;;24.60;42.60;;;;;;6150829;27;21995;-43
2022/07/05 12:35:58;;;;;;;0.20;0.20;;;24.50;42.40;;;;;;6142962;28;21914;-45
2022/07/05 12:39:01;;;;;;;0.03;0.03;;;24.60;42.50;;;;;;6168884;28;21044;-43
2022/07/05 12:42:03;;;;;;;0.13;0.13;;;24.50;42.60;;;;;;6155075;28;20125;-43
2022/07/05 12:45:20;;;;;;;0.10;0.10;;;24.60;42.60;;;;;;6150493;28;20050;-43
2022/07/05 12:48:30;;;;;;;0.30;0.20;;;24.50;42.60;;;;;;6146365;28;20032;-43
2022/07/05 12:51:34;;;;;;;0.25;0.17;;;24.50;42.60;;;;;;6113024;28;20050;-48
2022/07/05 13:01:20;;;;;;;0.20;0.20;;;24.60;42.40;;;;;;6122265;28;20086;-44
2022/07/05 13:04:22;;;;;;;0.25;0.20;;;24.50;42.30;;;;;;6129152;28;20043;-48
2022/07/05 13:07:25;;;;;;;0.88;0.20;;;24.50;42.30;;;;;;6144522;28;21277;-47
2022/07/05 13:10:46;;;;;;;0.20;0.20;;;24.50;42.30;;;;;;6086867;28;20240;-46
2022/07/05 13:13:48;;;;;;;0.10;0.10;;;24.60;42.50;;;;;;6107919;28;21280;-47
2022/07/05 13:16:57;;;;;;;0.65;0.10;;;24.60;42.60;;;;;;6103405;28;20128;-45
2022/07/05 13:20:09;;;;;;;0.10;0.10;;;23.90;42.30;;;;;;6160819;28;20178;-45
2022/07/05 13:23:11;;;;;;;;;;;25.80;43.60;;;;;;6107680;28;20039;-44
2022/07/05 13:26:12;;;;;;;0.28;0.10;;;24.60;42.80;;;;;;6102788;28;32751;-46
2022/07/05 13:29:14;;;;;;;0.20;0.20;;;24.60;42.80;;;;;;6152434;28;20043;-45
2022/07/05 13:32:22;;;;;;;1.70;0.20;;;24.70;42.80;;;;;;6109408;28;22540;-43
2022/07/05 13:35:25;;;;;;;0.17;0.10;;;24.50;42.70;;;;;;6140806;28;20039;-43
2022/07/05 13:38:26;;;;;;;0.30;0.30;;;24.60;43.00;;;;;;6139245;28;20134;-43
2022/07/05 13:41:28;;;;;;;0.20;0.20;;;24.70;43.00;;;;;;6158445;28;20059;-43
2022/07/05 13:44:30;;;;;;;0.10;0.10;;;25.00;43.20;;;;;;6122504;27;20092;-43
2022/07/05 13:47:40;;;;;;;0.68;0.10;;;24.50;42.90;;;;;;6122312;28;21246;-43
2022/07/05 13:50:50;;;;;;;0.25;0.10;;;24.50;42.90;;;;;;6119621;28;20043;-44
2022/07/05 13:53:51;;;;;;;0.25;0.10;;;24.50;42.80;;;;;;6145485;28;21641;-44
2022/07/05 13:56:53;;;;;;;0.20;0.20;;;24.50;42.80;;;;;;6119206;28;20158;-44
2022/07/05 13:59:55;;;;;;;0.30;0.20;;;24.60;42.90;;;;;;6108143;28;21026;-44
2022/07/05 14:03:03;;;;;;;0.25;0.10;;;24.50;42.80;;;;;;6163567;28;29339;-44
2022/07/05 14:06:08;;;;;;;0.25;0.20;;;24.60;43.00;;;;;;6142166;28;20521;-44
2022/07/05 14:09:10;;;;;;;0.28;0.20;;;24.60;43.00;;;;;;6167649;28;21232;-46
2022/07/05 14:12:11;;;;;;;0.10;0.10;;;24.60;43.20;;;;;;6212919;28;21276;-43
2022/07/05 14:15:13;;;;;;;0.10;0.10;;;24.50;42.80;;;;;;6208598;28;20046;-44
2022/07/05 14:18:24;;;;;;;0.77;0.20;;;24.60;42.70;;;;;;6165419;28;20166;-44
2022/07/05 14:21:46;;;;;;;0.00;0.00;;;24.60;42.70;;;;;;6113671;28;21604;-44
2022/07/05 14:24:49;;;;;;;0.80;0.20;;;24.60;42.60;;;;;;6136507;28;20530;-45
2022/07/05 14:27:51;;;;;;;0.22;0.17;;;24.70;42.70;;;;;;6160233;28;20043;-47
2022/07/05 14:30:52;;;;;;;0.10;0.10;;;24.60;42.50;;;;;;6126190;28;27298;-44
2022/07/05 14:34:00;;;;;;;0.40;0.30;;;24.50;42.50;;;;;;6139122;27;31767;-43
2022/07/05 14:37:02;;;;;;;0.20;0.20;;;24.60;42.60;;;;;;6185100;28;20158;-44
2022/07/05 14:40:06;;;;;;;0.30;0.20;;;24.40;42.30;;;;;;6164382;28;22108;-43
2022/07/05 14:43:08;;;;;;;0.10;0.10;;;24.60;42.50;;;;;;6139434;28;20044;-43
2022/07/05 14:46:11;;;;;;;0.45;0.13;;;24.50;42.30;;;;;;6126673;28;25817;-42
2022/07/05 14:49:22;;;;;;;0.10;0.10;;;24.60;42.30;;;;;;6146394;28;20105;-41
2022/07/05 14:52:32;;;;;;;0.20;0.10;;;24.50;42.10;;;;;;6135582;28;20159;-41
2022/07/05 14:55:34;;;;;;;0.22;0.10;;;24.50;42.20;;;;;;6119231;28;20047;-43
2022/07/05 14:58:35;;;;;;;0.50;0.10;;;24.70;42.30;;;;;;6153308;28;20048;-45
2022/07/05 15:01:37;;;;;;;0.13;0.10;;;24.60;42.30;;;;;;6134291;28;20145;-44
2022/07/05 15:04:47;;;;;;;0.85;0.20;;;24.60;42.30;;;;;;6051496;28;21570;-42
2022/07/05 15:07:49;;;;;;;0.20;0.17;;;24.60;42.40;;;;;;6032006;28;20077;-43
2022/07/05 15:10:51;;;;;;;1.90;0.52;;;24.60;42.60;;;;;;6064490;28;20527;-47
2022/07/05 15:13:54;;;;;;;0.10;0.10;;;24.60;42.70;;;;;;6063009;27;20366;-42
2022/07/05 15:16:56;;;;;;;0.30;0.20;;;24.50;42.80;;;;;;6071876;28;20158;-43
2022/07/05 15:20:06;;;;;;;0.38;0.20;;;24.60;43.00;;;;;;6136657;28;20072;-42
2022/07/05 15:23:16;;;;;;;0.10;0.10;;;24.60;43.00;;;;;;6137031;28;20064;-44
2022/07/05 15:26:19;;;;;;;0.10;0.10;;;24.60;43.20;;;;;;6149394;28;21711;-43
2022/07/05 15:29:20;;;;;;;0.10;0.10;;;24.60;43.70;;;;;;6162156;28;20150;-42
2022/07/05 15:32:22;;;;;;;0.30;0.10;;;24.70;43.40;;;;;;6120819;27;22243;-44
2022/07/05 15:35:29;;;;;;;0.10;0.10;;;24.60;43.30;;;;;;6125743;28;20046;-46
2022/07/05 15:38:33;;;;;;;0.10;0.10;;;24.60;43.40;;;;;;6148596;28;20129;-46
2022/07/05 15:41:36;;;;;;;0.45;0.20;;;24.70;43.50;;;;;;6118616;28;21935;-46
2022/07/05 15:44:37;;;;;;;0.17;0.17;;;24.70;43.60;;;;;;6141086;28;20075;-45
2022/07/05 15:47:39;;;;;;;1.85;0.20;;;24.70;43.60;;;;;;6151139;28;20044;-45
2022/07/05 15:50:49;;;;;;;1.25;0.10;;;24.70;43.60;;;;;;6167523;28;20036;-47
2022/07/05 15:53:51;;;;;;;1.33;0.20;;;24.70;43.70;;;;;;6177941;28;23042;-45
2022/07/05 15:56:52;;;;;;;0.45;0.10;;;25.80;44.50;;;;;;6173079;28;20048;-44
2022/07/05 16:00:08;;;;;;;0.30;0.13;;;24.60;43.80;;;;;;6181468;28;20216;-44
2022/07/05 16:03:10;;;;;;;0.90;0.30;;;24.70;44.00;;;;;;6164111;28;21246;-44
2022/07/05 16:06:17;;;;;;;0.20;0.10;;;24.70;44.00;;;;;;6180217;28;20145;-46
2022/07/05 16:09:19;;;;;;;0.10;0.10;;;24.70;44.00;;;;;;6171130;27;20044;-44
2022/07/05 16:12:21;;;;;;;0.17;0.10;;;24.70;43.90;;;;;;6158457;28;21604;-46
2022/07/05 16:18:41;;;;;;;0.52;0.10;;;24.70;43.90;;;;;;6186973;28;20055;-45
2022/07/05 16:21:51;;;;;;;0.32;0.10;;;24.60;43.90;;;;;;6176581;28;20162;-44
2022/07/05 16:24:53;;;;;;;0.10;0.10;;;24.70;43.90;;;;;;6200519;28;20071;-45
2022/07/05 16:27:55;;;;;;;0.05;0.05;;;24.70;43.80;;;;;;6230371;28;20075;-44
2022/07/05 16:31:03;;;;;;;0.22;0.10;;;25.10;44.00;;;;;;6202995;28;20397;-44
2022/07/05 16:34:05;;;;;;;0.00;0.00;;;24.70;43.80;;;;;;6173672;28;20622;-45
2022/07/05 16:37:15;;;;;;;0.00;0.00;;;24.90;43.90;;;;;;6201004;28;20052;-47